createdAt,value
2022-10-09T00:01:22.474Z,8.30
2022-10-09T00:03:50.771Z,7.82
2022-10-09T00:06:22.296Z,9.48
2022-10-09T00:08:49.111Z,7.25
2022-10-09T00:11:21.387Z,7.07
2022-10-09T00:13:48.698Z,8.68
2022-10-09T00:16:17.920Z,7.30
2022-10-09T00:18:45.178Z,7.10
2022-10-09T00:21:25.215Z,8.43
2022-10-09T00:23:53.428Z,6.72
2022-10-09T00:26:20.622Z,6.32
2022-10-09T00:28:47.597Z,6.55
2022-10-09T00:31:14.667Z,7.35
2022-10-09T00:33:41.774Z,6.03
2022-10-09T00:36:17.467Z,7.50
2022-10-09T00:38:44.638Z,7.00
2022-10-09T00:41:31.557Z,6.97
2022-10-09T00:44:01.874Z,6.90
2022-10-09T00:46:35.133Z,6.90
2022-10-09T00:49:25.060Z,6.97
2022-10-09T00:51:54.198Z,7.03
2022-10-09T00:54:23.993Z,7.63
2022-10-09T00:56:51.015Z,6.88
2022-10-09T00:59:18.910Z,7.25
2022-10-09T01:01:47.046Z,7.35
2022-10-09T01:04:13.841Z,6.93
2022-10-09T01:07:24.094Z,6.82
2022-10-09T01:10:12.652Z,7.03
2022-10-09T01:13:23.710Z,5.95
2022-10-09T01:15:59.354Z,7.43
2022-10-09T01:18:50.966Z,5.35
2022-10-09T01:21:26.085Z,6.30
2022-10-09T01:24:12.323Z,13.18
2022-10-09T01:27:06.042Z,7.38
2022-10-09T01:29:37.582Z,7.03
2022-10-09T01:32:05.727Z,7.68
2022-10-09T01:34:33.480Z,6.45
2022-10-09T01:37:01.165Z,7.75
2022-10-09T01:39:29.857Z,6.88
2022-10-09T01:41:57.242Z,5.45
2022-10-09T01:44:29.699Z,5.90
2022-10-09T01:46:57.224Z,6.20
2022-10-09T01:49:38.014Z,6.32
2022-10-09T01:52:22.719Z,6.13
2022-10-09T01:54:56.163Z,6.45
2022-10-09T01:57:29.754Z,6.88
2022-10-09T01:59:59.904Z,6.13
2022-10-09T02:02:27.467Z,6.10
2022-10-09T02:04:54.009Z,6.28
2022-10-09T02:07:22.700Z,6.97
2022-10-09T02:09:50.071Z,7.30
2022-10-09T02:12:18.958Z,6.50
2022-10-09T02:14:45.914Z,6.40
2022-10-09T02:17:21.857Z,5.82
2022-10-09T02:19:52.162Z,6.18
2022-10-09T02:22:22.578Z,5.50
2022-10-09T02:24:49.357Z,5.50
2022-10-09T02:27:18.706Z,10.10
2022-10-09T02:29:46.719Z,6.55
2022-10-09T02:32:13.588Z,5.82
2022-10-09T02:34:40.740Z,5.45
2022-10-09T02:37:08.143Z,5.78
2022-10-09T02:39:35.018Z,6.10
2022-10-09T02:42:02.028Z,5.68
2022-10-09T02:44:28.537Z,6.55
2022-10-09T02:46:55.039Z,6.25
2022-10-09T02:49:21.923Z,6.47
2022-10-09T02:51:48.452Z,5.88
2022-10-09T02:54:14.859Z,6.28
2022-10-09T02:56:41.585Z,7.40
2022-10-09T02:59:08.254Z,6.57
2022-10-09T03:01:35.431Z,6.90
2022-10-09T03:04:01.900Z,6.80
2022-10-09T03:06:29.056Z,8.70
2022-10-09T03:08:56.599Z,8.93
2022-10-09T03:11:24.751Z,7.55
2022-10-09T03:13:51.446Z,6.75
2022-10-09T03:16:20.761Z,7.47
2022-10-09T03:18:48.657Z,7.00
2022-10-09T03:21:18.526Z,6.10
2022-10-09T03:23:45.310Z,7.00
2022-10-09T03:26:14.600Z,6.47
2022-10-09T03:28:43.958Z,6.35
2022-10-09T03:31:22.403Z,6.57
2022-10-09T03:33:57.063Z,7.10
2022-10-09T03:36:23.492Z,7.03
2022-10-09T03:38:49.921Z,6.38
2022-10-09T03:41:16.428Z,7.22
2022-10-09T03:43:42.992Z,6.97
2022-10-09T03:46:10.929Z,6.45
2022-10-09T03:48:37.452Z,7.07
2022-10-09T03:51:04.141Z,7.90
2022-10-09T03:53:30.712Z,7.35
2022-10-09T03:55:57.302Z,6.78
2022-10-09T03:58:24.197Z,6.93
2022-10-09T04:00:52.258Z,9.93
2022-10-09T04:03:19.680Z,6.93
2022-10-09T04:05:46.741Z,7.13
2022-10-09T04:08:13.250Z,6.32
2022-10-09T04:10:39.750Z,10.45
2022-10-09T04:13:06.595Z,6.18
2022-10-09T04:15:33.011Z,5.70
2022-10-09T04:17:59.460Z,6.53
2022-10-09T04:20:26.050Z,6.35
2022-10-09T04:22:52.566Z,6.15
2022-10-09T04:25:19.093Z,6.10
2022-10-09T04:27:45.600Z,6.07
2022-10-09T04:30:12.611Z,6.85
2022-10-09T04:32:39.877Z,7.03
2022-10-09T04:35:06.637Z,6.50
2022-10-09T04:37:33.128Z,6.80
2022-10-09T04:39:59.595Z,6.60
2022-10-09T04:42:26.015Z,6.38
2022-10-09T04:44:52.416Z,6.57
2022-10-09T04:47:18.835Z,6.82
2022-10-09T04:49:45.292Z,6.50
2022-10-09T04:52:11.869Z,6.32
2022-10-09T04:54:38.249Z,6.10
2022-10-09T04:57:04.714Z,5.65
2022-10-09T04:59:31.153Z,6.07
2022-10-09T05:01:57.695Z,6.60
2022-10-09T05:04:24.102Z,7.00
2022-10-09T05:06:50.489Z,16.50
2022-10-09T05:09:17.176Z,12.40
2022-10-09T05:11:43.645Z,9.13
2022-10-09T05:14:10.697Z,7.55
2022-10-09T05:17:00.970Z,6.50
2022-10-09T05:19:23.739Z,6.72
2022-10-09T05:21:50.186Z,7.30
2022-10-09T05:24:16.659Z,6.70
2022-10-09T05:26:43.038Z,6.68
2022-10-09T05:29:09.440Z,6.68
2022-10-09T05:31:37.456Z,6.70
2022-10-09T05:34:04.756Z,6.93
2022-10-09T05:36:31.199Z,6.75
2022-10-09T05:38:57.803Z,6.32
2022-10-09T05:41:24.194Z,6.70
2022-10-09T05:43:50.747Z,6.25
2022-10-09T05:46:20.277Z,6.60
2022-10-09T05:48:52.791Z,6.82
2022-10-09T05:51:22.277Z,6.47
2022-10-09T05:53:49.446Z,7.40
2022-10-09T05:56:24.730Z,6.53
2022-10-09T05:58:59.519Z,6.35
2022-10-09T06:01:28.812Z,6.45
2022-10-09T06:03:56.893Z,6.18
2022-10-09T06:06:25.725Z,6.68
2022-10-09T06:08:52.301Z,5.97
2022-10-09T06:11:21.893Z,6.35
2022-10-09T06:13:49.604Z,6.20
2022-10-09T06:16:17.986Z,6.90
2022-10-09T06:18:49.535Z,5.90
2022-10-09T06:21:16.966Z,5.75
2022-10-09T06:23:43.699Z,6.00
2022-10-09T06:26:13.231Z,6.10
2022-10-09T06:28:40.824Z,6.18
2022-10-09T06:31:10.279Z,5.90
2022-10-09T06:33:39.124Z,8.65
2022-10-09T06:36:10.322Z,5.75
2022-10-09T06:38:38.838Z,17.30
2022-10-09T06:41:13.537Z,5.72
2022-10-09T06:43:40.727Z,6.05
2022-10-09T06:46:10.807Z,6.35
2022-10-09T06:48:39.160Z,6.00
2022-10-09T06:51:15.070Z,6.70
2022-10-09T06:53:48.668Z,6.60
2022-10-09T06:56:16.235Z,6.43
2022-10-09T06:58:43.013Z,8.15
2022-10-09T07:01:18.756Z,6.53
2022-10-09T07:03:47.212Z,5.93
2022-10-09T07:06:18.661Z,6.43
2022-10-09T07:08:48.720Z,5.95
2022-10-09T07:11:20.888Z,6.10
2022-10-09T07:13:53.122Z,6.07
2022-10-09T07:16:29.076Z,5.07
2022-10-09T07:18:55.699Z,5.60
2022-10-09T07:21:23.845Z,5.30
2022-10-09T07:23:50.500Z,5.25
2022-10-09T07:26:26.225Z,4.68
2022-10-09T07:28:53.759Z,4.30
2022-10-09T07:31:20.762Z,4.15
2022-10-09T07:33:48.644Z,4.50
2022-10-09T07:36:15.591Z,3.78
2022-10-09T07:38:42.774Z,4.38
2022-10-09T07:41:12.800Z,4.22
2022-10-09T07:43:41.209Z,4.50
2022-10-09T07:46:11.246Z,3.90
2022-10-09T07:48:37.881Z,4.07
2022-10-09T07:51:17.058Z,4.60
2022-10-09T07:53:44.798Z,4.45
2022-10-09T07:56:29.505Z,4.50
2022-10-09T07:59:04.399Z,4.70
2022-10-09T08:01:32.776Z,4.70
2022-10-09T08:04:00.680Z,4.20
2022-10-09T08:06:31.131Z,4.28
2022-10-09T08:08:59.634Z,4.20
2022-10-09T08:11:28.502Z,4.32
2022-10-09T08:13:55.449Z,4.22
2022-10-09T08:16:30.687Z,4.75
2022-10-09T08:19:00.679Z,5.15
2022-10-09T08:21:29.114Z,4.40
2022-10-09T08:23:57.503Z,4.95
2022-10-09T08:26:25.335Z,4.90
2022-10-09T08:29:00.683Z,4.35
2022-10-09T08:31:28.319Z,4.90
2022-10-09T08:33:56.771Z,5.00
2022-10-09T08:36:24.669Z,4.80
2022-10-09T08:38:51.844Z,5.35
2022-10-09T08:41:42.871Z,5.60
2022-10-09T08:44:20.355Z,5.10
2022-10-09T08:47:03.681Z,5.15
2022-10-09T08:49:35.016Z,5.22
2022-10-09T08:52:15.556Z,5.53
2022-10-09T08:54:42.103Z,5.32
2022-10-09T08:57:15.789Z,5.65
2022-10-09T08:59:43.542Z,3.70
2022-10-09T09:02:35.689Z,3.92
2022-10-09T09:05:40.613Z,2.20
2022-10-09T09:08:25.277Z,2.20
2022-10-09T09:11:00.510Z,2.25
2022-10-09T09:13:49.195Z,2.22
2022-10-09T09:16:23.285Z,2.00
2022-10-09T09:19:32.941Z,2.05
2022-10-09T09:22:00.136Z,1.98
2022-10-09T09:24:57.406Z,4.22
2022-10-09T09:27:38.869Z,3.20
2022-10-09T09:30:18.378Z,2.10
2022-10-09T09:33:09.581Z,1.67
2022-10-09T09:35:55.815Z,1.70
2022-10-09T09:38:22.317Z,1.70
2022-10-09T09:40:50.830Z,3.38
2022-10-09T09:43:26.392Z,2.20
2022-10-09T09:45:55.332Z,1.83
2022-10-09T09:48:34.234Z,2.90
2022-10-09T09:51:23.374Z,4.18
2022-10-09T09:54:16.940Z,2.75
2022-10-09T09:59:43.891Z,3.28
2022-10-09T10:02:29.122Z,6.45
2022-10-09T10:05:01.607Z,2.45
2022-10-09T10:07:36.336Z,3.47
2022-10-09T10:10:10.694Z,12.43
2022-10-09T10:12:44.159Z,3.00
2022-10-09T10:15:28.966Z,1.85
2022-10-09T10:18:03.430Z,1.70
2022-10-09T10:20:32.637Z,1.50
2022-10-09T10:23:00.658Z,2.17
2022-10-09T10:25:34.108Z,3.88
2022-10-09T10:28:12.921Z,2.15
2022-10-09T10:30:41.143Z,1.42
2022-10-09T10:33:22.532Z,1.50
2022-10-09T10:35:52.896Z,1.70
2022-10-09T10:38:38.503Z,1.75
2022-10-09T10:41:21.427Z,3.53
2022-10-09T10:43:59.012Z,2.58
2022-10-09T10:46:31.786Z,1.38
2022-10-09T10:49:03.013Z,1.60
2022-10-09T10:51:35.458Z,1.40
2022-10-09T10:54:17.332Z,3.65
2022-10-09T10:57:04.041Z,1.90
2022-10-09T10:59:48.841Z,2.28
2022-10-09T11:02:40.901Z,2.20
2022-10-09T11:05:29.098Z,1.30
2022-10-09T11:08:28.244Z,1.60
2022-10-09T11:11:18.118Z,3.95
2022-10-09T11:14:20.544Z,3.55
2022-10-09T11:17:06.818Z,5.95
2022-10-09T11:20:19.756Z,2.15
2022-10-09T11:23:05.085Z,1.70
2022-10-09T11:25:51.328Z,1.50
2022-10-09T11:28:23.107Z,1.83
2022-10-09T11:31:01.249Z,2.33
2022-10-09T11:33:36.953Z,1.52
2022-10-09T11:36:14.403Z,1.85
2022-10-09T11:38:50.693Z,1.70
2022-10-09T11:41:18.307Z,1.63
2022-10-09T11:44:04.147Z,1.70
2022-10-09T11:46:30.669Z,1.70
2022-10-09T11:49:03.165Z,3.08
2022-10-09T11:51:39.219Z,2.08
2022-10-09T11:54:12.133Z,2.38
2022-10-09T11:56:39.621Z,7.07
2022-10-09T11:59:07.310Z,1.73
2022-10-09T12:01:42.940Z,2.40
2022-10-09T12:04:12.419Z,2.92
2022-10-09T12:06:49.999Z,3.08
2022-10-09T12:09:40.784Z,1.65
2022-10-09T12:12:07.588Z,2.13
2022-10-09T12:14:37.227Z,3.20
2022-10-09T12:17:21.754Z,5.88
2022-10-09T12:19:52.412Z,7.07
2022-10-09T12:24:55.844Z,9.23
2022-10-09T12:29:56.435Z,7.07
2022-10-09T12:32:43.382Z,3.30
2022-10-09T12:35:22.147Z,15.25
2022-10-09T12:37:48.837Z,2.40
2022-10-09T12:40:23.819Z,1.70
2022-10-09T12:42:52.819Z,1.70
2022-10-09T12:45:24.129Z,5.03
2022-10-09T12:47:52.513Z,4.93
2022-10-09T12:50:34.103Z,5.25
2022-10-09T12:53:06.840Z,3.47
2022-10-09T12:55:42.341Z,2.45
2022-10-09T12:58:29.141Z,3.53
2022-10-09T13:00:58.273Z,1.83
2022-10-09T13:03:34.803Z,1.75
2022-10-09T13:06:03.909Z,2.25
2022-10-09T13:08:34.154Z,1.60
2022-10-09T13:11:19.524Z,1.50
2022-10-09T13:13:50.587Z,1.50
2022-10-09T13:16:17.085Z,1.70
2022-10-09T13:18:43.848Z,1.60
2022-10-09T13:21:17.534Z,2.30
2022-10-09T13:23:43.986Z,1.80
2022-10-09T13:26:20.008Z,1.55
2022-10-09T13:28:46.539Z,1.50
2022-10-09T13:31:13.183Z,1.45
2022-10-09T13:33:39.848Z,1.40
2022-10-09T13:36:06.703Z,1.33
2022-10-09T13:38:35.119Z,1.55
2022-10-09T13:41:03.906Z,1.20
2022-10-09T13:43:31.366Z,1.67
2022-10-09T13:45:58.253Z,2.20
2022-10-09T13:48:29.617Z,1.98
2022-10-09T13:51:01.270Z,1.70
2022-10-09T13:53:30.987Z,2.10
2022-10-09T13:56:00.841Z,1.85
2022-10-09T13:58:28.368Z,1.30
2022-10-09T14:00:55.110Z,1.60
2022-10-09T14:03:22.192Z,1.50
2022-10-09T14:05:48.725Z,1.30
2022-10-09T14:08:15.764Z,1.45
2022-10-09T14:10:46.473Z,1.52
2022-10-09T14:13:14.672Z,6.13
2022-10-09T14:15:41.988Z,1.70
2022-10-09T14:18:09.387Z,2.10
2022-10-09T14:20:36.717Z,2.50
2022-10-09T14:23:03.448Z,2.45
2022-10-09T14:25:30.111Z,2.42
2022-10-09T14:27:56.648Z,2.10
2022-10-09T14:30:23.580Z,3.50
2022-10-09T14:32:51.405Z,1.77
2022-10-09T14:35:21.545Z,4.25
2022-10-09T14:37:48.600Z,2.15
2022-10-09T14:40:15.274Z,1.70
2022-10-09T14:42:42.964Z,2.38
2022-10-09T14:45:12.066Z,2.10
2022-10-09T14:47:38.870Z,1.50
2022-10-09T14:50:05.975Z,6.13
2022-10-09T14:52:32.775Z,3.40
2022-10-09T14:54:59.387Z,3.00
2022-10-09T14:57:31.624Z,2.95
2022-10-09T15:00:02.166Z,3.92
2022-10-09T15:02:28.965Z,4.03
2022-10-09T15:04:59.996Z,10.25
2022-10-09T15:07:28.303Z,1.95
2022-10-09T15:09:55.516Z,1.70
2022-10-09T15:12:22.114Z,10.38
2022-10-09T15:14:48.742Z,3.88
2022-10-09T15:17:15.450Z,2.05
2022-10-09T15:19:42.097Z,10.02
2022-10-09T15:22:08.808Z,41.72
2022-10-09T15:24:35.644Z,31.90
2022-10-09T15:27:02.294Z,20.17
2022-10-09T15:29:28.874Z,4.68
2022-10-09T15:31:55.548Z,7.97
2022-10-09T15:34:22.810Z,6.53
2022-10-09T15:36:49.863Z,5.05
2022-10-09T15:39:16.452Z,4.03
2022-10-09T15:41:43.695Z,5.82
2022-10-09T15:44:17.405Z,12.25
2022-10-09T15:46:45.593Z,4.60
2022-10-09T15:49:12.404Z,8.05
2022-10-09T15:51:39.360Z,3.88
2022-10-09T15:54:06.585Z,11.07
2022-10-09T15:56:38.808Z,4.30
2022-10-09T15:59:06.349Z,6.20
2022-10-09T16:01:32.849Z,3.67
2022-10-09T16:03:59.435Z,3.90
2022-10-09T16:06:25.963Z,3.00
2022-10-09T16:08:56.660Z,4.55
2022-10-09T16:13:54.127Z,10.63
2022-10-09T16:16:23.606Z,13.00
2022-10-09T16:18:50.873Z,7.75
2022-10-09T16:21:22.825Z,9.77
2022-10-09T16:23:50.187Z,5.53
2022-10-09T16:26:22.313Z,7.20
2022-10-09T16:28:49.919Z,8.82
2022-10-09T16:31:21.716Z,6.65
2022-10-09T16:33:48.302Z,3.45
2022-10-09T16:36:14.798Z,14.63
2022-10-09T16:38:41.540Z,5.55
2022-10-09T16:41:15.058Z,8.10
2022-10-09T16:43:41.462Z,8.35
2022-10-09T16:46:15.529Z,4.97
2022-10-09T16:48:42.072Z,5.07
2022-10-09T16:51:13.352Z,5.55
2022-10-09T16:53:40.575Z,5.40
2022-10-09T16:56:15.728Z,3.55
2022-10-09T16:58:43.212Z,4.07
2022-10-09T17:01:11.274Z,4.13
2022-10-09T17:03:42.204Z,5.65
2022-10-09T17:06:19.510Z,5.82
2022-10-09T17:08:47.467Z,4.95
2022-10-09T17:11:15.659Z,5.63
2022-10-09T17:13:42.243Z,6.07
2022-10-09T17:16:15.666Z,5.38
2022-10-09T17:18:44.165Z,3.83
2022-10-09T17:21:13.047Z,3.75
2022-10-09T17:23:40.440Z,3.00
2022-10-09T17:26:12.733Z,3.00
2022-10-09T17:28:40.297Z,3.40
2022-10-09T17:31:09.585Z,2.92
2022-10-09T17:33:41.993Z,3.30
2022-10-09T17:36:09.802Z,3.88
2022-10-09T17:38:36.458Z,4.32
2022-10-09T17:41:07.879Z,5.60
2022-10-09T17:43:34.427Z,5.30
2022-10-09T17:46:01.337Z,4.10
2022-10-09T17:48:29.221Z,4.85
2022-10-09T17:50:57.793Z,4.90
2022-10-09T17:53:24.835Z,4.63
2022-10-09T17:55:53.516Z,4.40
2022-10-09T17:58:21.551Z,4.30
2022-10-09T18:00:49.427Z,4.25
2022-10-09T18:03:17.505Z,4.00
2022-10-09T18:05:46.205Z,4.22
2022-10-09T18:08:14.026Z,4.55
2022-10-09T18:10:40.644Z,5.00
2022-10-09T18:13:08.272Z,5.15
2022-10-09T18:15:42.651Z,6.00
2022-10-09T18:18:10.491Z,4.57
2022-10-09T18:20:40.393Z,4.55
2022-10-09T18:23:08.164Z,4.28
2022-10-09T18:25:35.832Z,4.43
2022-10-09T18:28:02.266Z,4.10
2022-10-09T18:30:28.711Z,4.55
2022-10-09T18:32:55.658Z,4.25
2022-10-09T18:35:22.596Z,4.72
2022-10-09T18:37:48.980Z,4.22
2022-10-09T18:40:15.486Z,3.63
2022-10-09T18:42:41.963Z,4.30
2022-10-09T18:45:12.438Z,4.20
2022-10-09T18:47:39.485Z,4.43
2022-10-09T18:50:09.404Z,5.05
2022-10-09T18:52:37.476Z,5.57
2022-10-09T18:55:07.347Z,5.90
2022-10-09T18:57:34.243Z,6.82
2022-10-09T19:00:01.977Z,6.90
2022-10-09T19:02:28.498Z,6.82
2022-10-09T19:04:55.104Z,6.35
2022-10-09T19:07:21.622Z,6.20
2022-10-09T19:09:56.309Z,5.10
2022-10-09T19:12:23.848Z,5.65
2022-10-09T19:14:50.335Z,4.82
2022-10-09T19:17:17.050Z,5.63
2022-10-09T19:19:43.629Z,5.43
2022-10-09T19:22:14.823Z,5.90
2022-10-09T19:24:42.493Z,4.80
2022-10-09T19:27:09.152Z,4.50
2022-10-09T19:29:36.178Z,4.90
2022-10-09T19:32:02.747Z,4.65
2022-10-09T19:34:29.897Z,5.00
2022-10-09T19:36:56.453Z,4.10
2022-10-09T19:39:22.928Z,3.58
2022-10-09T19:41:51.042Z,3.25
2022-10-09T19:44:18.141Z,8.95
2022-10-09T19:46:45.206Z,4.50
2022-10-09T19:49:11.684Z,3.90
2022-10-09T19:51:38.114Z,3.72
2022-10-09T19:54:06.731Z,3.85
2022-10-09T19:56:34.422Z,4.32
2022-10-09T19:59:02.984Z,4.65
2022-10-09T20:01:31.404Z,4.13
2022-10-09T20:04:00.521Z,5.75
2022-10-09T20:06:27.748Z,4.55
2022-10-09T20:08:54.812Z,3.95
2022-10-09T20:11:21.350Z,5.35
2022-10-09T20:13:53.406Z,3.70
2022-10-09T20:16:22.317Z,4.30
2022-10-09T20:18:48.774Z,3.47
2022-10-09T20:21:17.161Z,4.13
2022-10-09T20:23:44.328Z,3.65
2022-10-09T20:26:19.482Z,3.53
2022-10-09T20:28:47.045Z,3.10
2022-10-09T20:31:17.783Z,3.10
2022-10-09T20:33:45.582Z,3.42
2022-10-09T20:36:33.451Z,3.42
2022-10-09T20:39:02.305Z,2.95
2022-10-09T20:41:30.166Z,4.70
2022-10-09T20:43:58.110Z,3.13
2022-10-09T20:46:26.396Z,3.45
2022-10-09T20:48:52.871Z,3.22
2022-10-09T20:51:20.630Z,3.30
2022-10-09T20:53:51.950Z,3.00
2022-10-09T20:56:18.417Z,4.30
2022-10-09T20:58:44.907Z,3.13
2022-10-09T21:01:12.281Z,2.70
2022-10-09T21:03:40.430Z,2.58
2022-10-09T21:06:09.481Z,2.65
2022-10-09T21:08:36.104Z,2.67
2022-10-09T21:11:06.123Z,2.65
2022-10-09T21:13:33.228Z,3.08
2022-10-09T21:15:59.834Z,2.92
2022-10-09T21:18:28.965Z,2.70
2022-10-09T21:20:56.276Z,2.67
2022-10-09T21:23:22.750Z,5.57
2022-10-09T21:25:51.158Z,2.90
2022-10-09T21:28:19.151Z,3.08
2022-10-09T21:30:46.297Z,3.00
2022-10-09T21:33:13.331Z,2.60
2022-10-09T21:35:51.019Z,2.50
2022-10-09T21:38:20.364Z,2.50
2022-10-09T21:40:49.202Z,2.58
2022-10-09T21:43:16.275Z,2.70
2022-10-09T21:45:43.025Z,2.50
2022-10-09T21:48:14.742Z,2.53
2022-10-09T21:50:41.131Z,2.53
2022-10-09T21:53:07.519Z,2.40
2022-10-09T21:55:34.514Z,2.90
2022-10-09T21:58:00.930Z,2.65
2022-10-09T22:00:27.450Z,2.60
2022-10-09T22:02:54.116Z,2.97
2022-10-09T22:05:20.579Z,2.33
2022-10-09T22:07:47.007Z,2.92
2022-10-09T22:10:13.427Z,2.80
2022-10-09T22:12:39.860Z,2.90
2022-10-09T22:15:06.801Z,2.53
2022-10-09T22:17:33.447Z,2.80
2022-10-09T22:19:59.981Z,2.90
2022-10-09T22:22:26.550Z,2.60
2022-10-09T22:24:53.079Z,2.70
2022-10-09T22:27:19.833Z,2.42
2022-10-09T22:29:48.917Z,2.40
2022-10-09T22:32:15.387Z,2.38
2022-10-09T22:34:41.892Z,2.17
2022-10-09T22:37:08.466Z,2.38
2022-10-09T22:39:35.085Z,2.47
2022-10-09T22:42:01.571Z,2.53
2022-10-09T22:44:28.013Z,2.78
2022-10-09T22:46:54.490Z,2.40
2022-10-09T22:49:21.021Z,2.50
2022-10-09T22:51:47.547Z,2.47
2022-10-09T22:54:14.096Z,2.22
2022-10-09T22:56:43.831Z,2.20
2022-10-09T22:59:13.168Z,2.10
2022-10-09T23:01:53.515Z,2.50
2022-10-09T23:04:21.890Z,2.70
2022-10-09T23:06:54.332Z,11.55
2022-10-09T23:09:22.794Z,2.50
2022-10-09T23:11:49.464Z,2.42
2022-10-09T23:14:15.930Z,2.50
2022-10-09T23:16:43.026Z,2.97
2022-10-09T23:19:10.116Z,2.33
2022-10-09T23:21:39.172Z,2.30
2022-10-09T23:24:07.275Z,2.75
2022-10-09T23:26:35.509Z,2.30
2022-10-09T23:29:05.945Z,2.22
2022-10-09T23:31:33.099Z,2.50
2022-10-09T23:33:59.910Z,2.50
2022-10-09T23:36:28.549Z,2.40
2022-10-09T23:38:55.337Z,2.17
2022-10-09T23:41:24.443Z,2.63
2022-10-09T23:43:51.377Z,2.40
2022-10-09T23:46:24.242Z,2.33
2022-10-09T23:48:51.512Z,2.42
2022-10-09T23:51:20.140Z,2.45
2022-10-09T23:53:46.780Z,2.58
2022-10-09T23:56:19.142Z,2.42
2022-10-09T23:58:46.119Z,2.40
